Time;durP1;ratioP1;P1;durP2;ratioP2;P2;SDS_P1;SDS_P2;PMS_P1;PMS_P2;Temp;Humidity;BMP_temperature;BMP_pressure;BME280_temperature;BME280_humidity;BME280_pressure;Samples;Min_cycle;Max_cycle;Signal;HPM_P1;HPM_P2
2022/06/01 00:00:48;;;;;;;;;;;;;;;20.82;50.55;100769.75;4951077;28;5195;-64
2022/06/01 00:03:15;;;;;;;;;;;;;;;20.83;50.61;100776.97;4953800;28;4256;-64
2022/06/01 00:05:42;;;;;;;;;;;;;;;20.83;50.60;100776.97;4948841;28;5477;-64
2022/06/01 00:08:08;;;;;;;;;;;;;;;20.82;50.43;100775.50;4955494;28;5298;-63
2022/06/01 00:10:34;;;;;;;;;;;;;;;20.82;50.60;100787.03;4953572;28;4233;-64
2022/06/01 00:13:01;;;;;;;;;;;;;;;20.81;50.68;100782.66;4960515;28;4212;-64
2022/06/01 00:15:27;;;;;;;;;;;;;;;20.80;50.71;100784.06;4960065;28;5413;-64
2022/06/01 00:17:57;;;;;;;;;;;;;;;20.80;50.62;100778.31;4958539;28;5309;-64
2022/06/01 00:20:23;;;;;;;;;;;;;;;20.80;50.68;100775.44;4966273;28;4221;-63
2022/06/01 00:22:49;;;;;;;;;;;;;;;20.79;50.78;100778.94;4964154;28;5268;-64
2022/06/01 00:25:16;;;;;;;;;;;;;;;20.79;50.75;100779.69;4963523;28;4148;-64
2022/06/01 00:27:42;;;;;;;;;;;;;;;20.80;50.71;100784.06;4962833;28;4176;-64
2022/06/01 00:30:10;;;;;;;;;;;;;;;20.80;50.77;100783.28;4961011;28;4059;-64
2022/06/01 00:32:36;;;;;;;;;;;;;;;20.78;50.82;100781.09;4957276;28;4314;-64
2022/06/01 00:35:03;;;;;;;;;;;;;;;20.79;50.81;100773.19;4963709;28;4232;-64
2022/06/01 00:37:29;;;;;;;;;;;;;;;20.79;50.83;100782.56;4957919;28;4202;-63
2022/06/01 00:39:56;;;;;;;;;;;;;;;20.78;50.70;100781.09;4963045;28;4080;-64
2022/06/01 00:42:24;;;;;;;;;;;;;;;20.78;50.83;100786.84;4955247;28;4263;-63
2022/06/01 00:44:50;;;;;;;;;;;;;;;20.78;50.82;100786.84;4963772;28;4337;-64
2022/06/01 00:47:16;;;;;;;;;;;;;;;20.78;50.89;100775.34;4965652;28;4422;-63
2022/06/01 00:49:46;;;;;;;;;;;;;;;20.78;50.72;100781.09;4964583;28;4123;-64
2022/06/01 00:52:12;;;;;;;;;;;;;;;20.77;50.83;100791.09;4957137;28;4236;-64
2022/06/01 00:54:38;;;;;;;;;;;;;;;20.78;50.74;100786.09;4957639;28;4217;-64
2022/06/01 00:57:08;;;;;;;;;;;;;;;20.76;50.87;100789.63;4959353;28;4191;-64
2022/06/01 00:59:36;;;;;;;;;;;;;;;20.71;50.88;100788.72;4955281;28;4360;-64
2022/06/01 01:02:02;;;;;;;;;;;;;;;20.75;50.94;100798.91;4965629;28;4180;-64
2022/06/01 01:04:31;;;;;;;;;;;;;;;20.74;50.78;100798.19;4956788;28;4255;-63
2022/06/01 01:06:59;;;;;;;;;;;;;;;20.76;50.85;100804.03;4956959;28;4338;-64
2022/06/01 01:09:25;;;;;;;;;;;;;;;20.75;50.94;100805.41;4959859;28;4148;-64
2022/06/01 01:11:58;;;;;;;;;;;;;;;20.75;51.03;100807.53;4959386;28;4243;-65
2022/06/01 01:14:25;;;;;;;;;;;;;;;20.74;50.94;100809.69;4973991;28;4159;-65
2022/06/01 01:16:52;;;;;;;;;;;;;;;20.74;50.91;100806.06;4963515;28;4146;-64
2022/06/01 01:19:27;;;;;;;;;;;;;;;20.74;51.00;100798.19;4960649;28;5020;-64
2022/06/01 01:22:03;;;;;;;;;;;;;;;20.74;50.87;100795.28;4961922;28;4213;-64
2022/06/01 01:24:35;;;;;;;;;;;;;;;20.74;50.89;100792.41;4961149;28;4106;-64
2022/06/01 01:27:01;;;;;;;;;;;;;;;20.73;50.95;100790.94;4955060;28;5306;-64
2022/06/01 01:29:33;;;;;;;;;;;;;;;20.73;51.03;100784.44;4954894;28;4262;-64
2022/06/01 01:32:00;;;;;;;;;;;;;;;20.72;51.07;100775.06;4947528;28;5528;-64
2022/06/01 01:34:27;;;;;;;;;;;;;;;20.72;51.01;100783.69;4964592;28;5561;-64
2022/06/01 01:36:55;;;;;;;;;;;;;;;20.73;50.96;100784.44;4961496;28;4264;-64
2022/06/01 01:39:21;;;;;;;;;;;;;;;20.72;51.11;100777.94;4962081;28;5565;-64
2022/06/01 01:41:48;;;;;;;;;;;;;;;20.72;51.08;100783.69;4958874;28;5241;-63
2022/06/01 01:44:15;;;;;;;;;;;;;;;20.74;50.83;100780.91;4959122;28;4243;-63
2022/06/01 01:46:47;;;;;;;;;;;;;;;20.72;51.04;100775.06;4958150;28;4224;-63
2022/06/01 01:49:14;;;;;;;;;;;;;;;20.73;51.13;100781.56;4961241;28;4247;-63
2022/06/01 01:51:40;;;;;;;;;;;;;;;20.73;51.03;100781.56;4949767;28;4234;-63
2022/06/01 01:54:17;;;;;;;;;;;;;;;20.73;51.10;100773.69;4954800;28;4451;-63
2022/06/01 01:56:51;;;;;;;;;;;;;;;20.73;51.08;100779.44;4956956;28;4001;-63
2022/06/01 01:59:41;;;;;;;;;;;;;;;20.74;51.10;100775.16;4959571;28;4291;-63
2022/06/01 02:02:12;;;;;;;;;;;;;;;20.74;51.01;100778.03;4939647;28;4325;-63
2022/06/01 02:07:29;;;;;;;;;;;;;;;20.76;50.98;100783.13;4958195;28;5068;-63
2022/06/01 02:12:43;;;;;;;;;;;;;;;20.75;51.08;100773.75;4952349;28;4249;-63
2022/06/01 02:15:11;;;;;;;;;;;;;;;20.76;50.99;100766.63;4962644;28;4264;-63
2022/06/01 02:17:40;;;;;;;;;;;;;;;20.74;50.98;100760.75;4960520;28;5615;-63
2022/06/01 02:20:11;;;;;;;;;;;;;;;20.76;51.01;100760.13;4959518;28;4240;-63
2022/06/01 02:22:40;;;;;;;;;;;;;;;20.75;51.00;100759.34;4973473;28;4940;-63
2022/06/01 02:25:07;;;;;;;;;;;;;;;20.75;50.99;100765.13;4965203;28;4042;-63
2022/06/01 02:27:34;;;;;;;;;;;;;;;20.75;50.99;100770.88;4960196;28;4583;-64
2022/06/01 02:30:21;;;;;;;;;;;;;;;20.74;50.89;100774.41;4962125;28;4389;-63
2022/06/01 02:32:47;;;;;;;;;;;;;;;20.75;50.97;100765.13;4955935;28;4450;-63
2022/06/01 02:35:14;;;;;;;;;;;;;;;20.75;51.02;100758.63;4958904;28;5172;-63
2022/06/01 02:37:41;;;;;;;;;;;;;;;20.75;50.98;100764.38;4974316;28;4880;-63
2022/06/01 02:40:08;;;;;;;;;;;;;;;20.74;51.00;100763.63;4971004;28;4114;-63
2022/06/01 02:42:40;;;;;;;;;;;;;;;20.75;50.93;100752.88;4950471;28;4360;-64
2022/06/01 02:45:07;;;;;;;;;;;;;;;20.73;51.09;100756.41;4959381;28;4233;-63
2022/06/01 02:47:34;;;;;;;;;;;;;;;20.73;51.01;100758.53;4963332;28;4144;-63
2022/06/01 02:50:01;;;;;;;;;;;;;;;20.74;51.07;100757.88;4965141;28;5267;-63
2022/06/01 02:52:27;;;;;;;;;;;;;;;20.73;51.06;100759.28;4964459;28;4362;-63
2022/06/01 02:54:53;;;;;;;;;;;;;;;20.74;51.04;100762.91;4963081;28;4348;-64
2022/06/01 02:57:20;;;;;;;;;;;;;;;20.73;51.17;100765.03;4965192;28;5477;-63
2022/06/01 02:59:46;;;;;;;;;;;;;;;20.72;51.02;100757.78;4964843;28;4413;-63
2022/06/01 03:02:13;;;;;;;;;;;;;;;20.73;51.05;100764.28;4959407;28;4234;-63
2022/06/01 03:04:39;;;;;;;;;;;;;;;20.73;50.83;100772.91;4965349;28;4278;-63
2022/06/01 03:07:06;;;;;;;;;;;;;;;20.71;50.83;100762.09;4966256;28;4018;-64
2022/06/01 03:09:34;;;;;;;;;;;;;;;20.73;51.06;100772.91;4961628;28;4322;-63
2022/06/01 03:12:01;;;;;;;;;;;;;;;20.71;50.99;100767.84;4965044;28;4393;-63
2022/06/01 03:14:27;;;;;;;;;;;;;;;20.72;51.03;100763.56;4966859;28;4186;-63
2022/06/01 03:16:55;;;;;;;;;;;;;;;20.71;50.99;100770.72;4966019;28;5249;-63
2022/06/01 03:19:21;;;;;;;;;;;;;;;20.72;50.99;100769.31;4957621;28;4248;-64
2022/06/01 03:21:48;;;;;;;;;;;;;;;20.71;51.01;100765.69;4957729;28;5351;-63
2022/06/01 03:24:14;;;;;;;;;;;;;;;20.71;51.03;100759.94;4966973;28;4132;-63
2022/06/01 03:26:42;;;;;;;;;;;;;;;20.70;50.86;100751.94;4963008;28;4208;-63
2022/06/01 03:29:08;;;;;;;;;;;;;;;20.68;51.12;100764.13;4965510;28;4074;-64
2022/06/01 03:31:34;;;;;;;;;;;;;;;20.69;51.10;100773.50;4965998;28;4186;-63
2022/06/01 03:34:01;;;;;;;;;;;;;;;20.67;51.09;100765.50;4964704;28;5368;-63
2022/06/01 03:36:27;;;;;;;;;;;;;;;20.68;51.15;100772.00;4960273;28;4102;-64
2022/06/01 03:38:54;;;;;;;;;;;;;;;20.67;51.08;100771.25;4959062;28;4228;-63
2022/06/01 03:41:22;;;;;;;;;;;;;;;20.68;51.23;100769.13;4965795;28;4241;-63
2022/06/01 03:46:34;;;;;;;;;;;;;;;20.65;51.16;100767.56;4961139;28;4227;-63
2022/06/01 03:49:00;;;;;;;;;;;;;;;20.67;51.22;100773.41;4965195;28;5244;-63
2022/06/01 03:51:26;;;;;;;;;;;;;;;20.66;51.07;100774.78;4964202;28;5260;-63
2022/06/01 03:53:53;;;;;;;;;;;;;;;20.66;51.15;100774.78;4964025;28;4291;-64
2022/06/01 03:56:22;;;;;;;;;;;;;;;20.64;51.21;100777.59;4956216;28;5476;-65
2022/06/01 03:58:49;;;;;;;;;;;;;;;20.65;51.15;100773.31;4956008;28;4212;-64
2022/06/01 04:01:16;;;;;;;;;;;;;;;20.64;51.19;100784.09;4958437;28;4256;-64
2022/06/01 04:03:42;;;;;;;;;;;;;;;20.65;51.19;100781.94;4963456;28;4222;-64
2022/06/01 04:06:09;;;;;;;;;;;;;;;20.63;51.18;100776.09;4962292;28;4494;-64
2022/06/01 04:08:35;;;;;;;;;;;;;;;20.64;51.20;100783.34;4966005;28;4246;-64
2022/06/01 04:11:01;;;;;;;;;;;;;;;20.63;51.14;100784.72;4962562;28;4199;-64
2022/06/01 04:13:28;;;;;;;;;;;;;;;20.63;51.12;100781.84;4956916;28;4187;-64
2022/06/01 04:15:54;;;;;;;;;;;;;;;20.63;51.12;100776.09;4959165;28;4378;-64
2022/06/01 04:18:25;;;;;;;;;;;;;;;20.63;51.21;100785.47;4958849;28;4292;-64
2022/06/01 04:20:51;;;;;;;;;;;;;;;20.64;51.08;100789.09;4960929;28;4077;-64
2022/06/01 04:23:18;;;;;;;;;;;;;;;20.62;51.08;100792.63;4965864;28;4181;-64
2022/06/01 04:25:44;;;;;;;;;;;;;;;20.62;51.16;100786.88;4968265;28;4247;-64
2022/06/01 04:28:10;;;;;;;;;;;;;;;20.62;51.05;100789.75;4966779;28;5331;-64
2022/06/01 04:30:37;;;;;;;;;;;;;;;20.63;51.21;100787.59;4958153;28;5304;-63
2022/06/01 04:33:03;;;;;;;;;;;;;;;20.62;51.16;100800.53;4962079;28;4196;-63
2022/06/01 04:35:29;;;;;;;;;;;;;;;20.63;51.11;100794.09;4957821;28;4259;-63
2022/06/01 04:38:14;;;;;;;;;;;;;;;20.63;51.03;100796.97;4960968;28;4182;-63
2022/06/01 04:40:42;;;;;;;;;;;;;;;20.65;51.36;100790.56;4960776;28;4680;-62
2022/06/01 04:43:08;;;;;;;;;;;;;;;20.64;51.37;100791.97;4963985;28;4220;-62
2022/06/01 04:45:35;;;;;;;;;;;;;;;20.64;51.03;100794.88;4952080;28;4075;-62
2022/06/01 04:48:01;;;;;;;;;;;;;;;20.64;51.02;100798.47;4956611;28;4459;-62
2022/06/01 04:50:27;;;;;;;;;;;;;;;20.63;51.07;100802.00;4960173;28;4316;-62
2022/06/01 04:52:54;;;;;;;;;;;;;;;20.64;50.99;100800.63;4959296;28;4182;-62
2022/06/01 04:55:21;;;;;;;;;;;;;;;20.64;51.21;100800.63;4958295;28;4219;-62
2022/06/01 04:57:47;;;;;;;;;;;;;;;20.63;51.17;100805.59;4959272;28;4138;-63
2022/06/01 05:00:14;;;;;;;;;;;;;;;20.64;51.20;100806.38;4960842;28;4090;-63
2022/06/01 05:02:40;;;;;;;;;;;;;;;20.64;51.10;100800.63;4961913;28;4223;-64
2022/06/01 05:05:07;;;;;;;;;;;;;;;20.64;51.04;100800.63;4952111;28;4148;-62
2022/06/01 05:07:33;;;;;;;;;;;;;;;20.67;51.08;100802.19;4958537;28;4241;-63
2022/06/01 05:10:00;;;;;;;;;;;;;;;20.68;51.20;100795.00;4955368;28;4237;-59
2022/06/01 05:12:26;;;;;;;;;;;;;;;20.68;51.16;100800.78;4955646;28;4178;-61
2022/06/01 05:14:52;;;;;;;;;;;;;;;20.66;51.29;100798.56;4943486;28;4202;-63
2022/06/01 05:17:19;;;;;;;;;;;;;;;20.62;51.35;100791.91;4950770;28;4295;-62
2022/06/01 05:19:45;;;;;;;;;;;;;;;20.60;51.51;100806.19;4949282;28;4257;-61
2022/06/01 05:22:11;;;;;;;;;;;;;;;20.61;51.39;100807.66;4959315;28;5108;-63
2022/06/01 05:24:38;;;;;;;;;;;;;;;20.64;51.52;100806.38;4964114;28;5573;-64
2022/06/01 05:27:04;;;;;;;;;;;;;;;20.63;51.58;100802.00;4963412;28;4478;-62
2022/06/01 05:29:31;;;;;;;;;;;;;;;20.65;51.61;100796.34;4962914;28;5337;-63
2022/06/01 05:31:57;;;;;;;;;;;;;;;20.65;51.88;100802.09;4964679;28;4174;-66
2022/06/01 05:34:23;;;;;;;;;;;;;;;20.65;51.69;100802.09;4965051;28;5400;-67
2022/06/01 05:36:50;;;;;;;;;;;;;;;20.64;51.51;100801.34;4962904;28;4222;-67
2022/06/01 05:39:16;;;;;;;;;;;;;;;20.63;51.44;100790.47;4966080;28;4255;-68
2022/06/01 05:41:42;;;;;;;;;;;;;;;20.63;51.20;100799.13;4957348;28;4221;-65
2022/06/01 05:44:09;;;;;;;;;;;;;;;20.64;51.41;100800.63;4957941;28;4085;-65
2022/06/01 05:46:35;;;;;;;;;;;;;;;20.63;51.40;100799.13;4963964;28;5272;-65
2022/06/01 05:49:02;;;;;;;;;;;;;;;20.63;51.30;100793.38;4960950;28;4223;-66
2022/06/01 05:51:29;;;;;;;;;;;;;;;20.63;51.29;100796.25;4959943;28;4431;-65
2022/06/01 05:54:00;;;;;;;;;;;;;;;20.63;51.23;100793.38;4948244;28;4232;-65
2022/06/01 05:56:50;;;;;;;;;;;;;;;20.63;51.26;100796.25;4965754;28;4115;-65
2022/06/01 05:59:16;;;;;;;;;;;;;;;20.63;51.26;100790.47;4964237;28;6334;-65
2022/06/01 06:01:42;;;;;;;;;;;;;;;20.61;51.25;100796.16;4962641;28;4201;-65
2022/06/01 06:04:09;;;;;;;;;;;;;;;20.62;51.18;100798.38;4965179;28;4206;-65
2022/06/01 06:06:35;;;;;;;;;;;;;;;20.62;51.18;100803.41;4967435;28;5376;-65
2022/06/01 06:09:03;;;;;;;;;;;;;;;20.62;51.20;100803.41;4965344;28;4164;-65
2022/06/01 06:11:34;;;;;;;;;;;;;;;20.62;51.13;100800.53;4966481;28;4156;-65
2022/06/01 06:14:00;;;;;;;;;;;;;;;20.62;51.13;100803.41;4964729;28;4231;-65
2022/06/01 06:16:27;;;;;;;;;;;;;;;20.62;50.95;100806.28;4966034;28;4199;-65
2022/06/01 06:18:56;;;;;;;;;;;;;;;20.62;50.98;100806.28;4964591;28;5447;-65
2022/06/01 06:21:26;;;;;;;;;;;;;;;20.62;51.14;100797.66;4970880;28;4078;-65
2022/06/01 06:23:54;;;;;;;;;;;;;;;20.61;50.91;100794.00;4964774;28;4259;-65
2022/06/01 06:26:21;;;;;;;;;;;;;;;20.62;50.98;100786.13;4964508;28;4104;-66
2022/06/01 06:28:47;;;;;;;;;;;;;;;20.61;50.95;100788.25;4965998;28;4211;-65
2022/06/01 06:31:13;;;;;;;;;;;;;;;20.62;51.07;100791.91;4962457;28;4190;-65
2022/06/01 06:33:40;;;;;;;;;;;;;;;20.61;50.97;100787.50;4965183;28;4300;-65
2022/06/01 06:36:07;;;;;;;;;;;;;;;20.61;51.01;100790.41;4965002;28;4418;-65
2022/06/01 06:38:34;;;;;;;;;;;;;;;20.61;50.96;100790.41;4965565;28;4226;-65
2022/06/01 06:41:00;;;;;;;;;;;;;;;20.62;50.82;100789.00;4964312;28;4244;-65
2022/06/01 06:43:27;;;;;;;;;;;;;;;20.61;50.86;100787.50;4965665;28;4155;-65
2022/06/01 06:45:58;;;;;;;;;;;;;;;20.62;50.81;100786.13;4964163;28;4182;-65
2022/06/01 06:48:24;;;;;;;;;;;;;;;20.61;50.79;100790.41;4966420;28;3949;-65
2022/06/01 06:50:51;;;;;;;;;;;;;;;20.62;50.85;100803.41;4962883;28;4857;-66
2022/06/01 06:53:20;;;;;;;;;;;;;;;20.61;51.01;100799.03;4965604;28;4140;-65
2022/06/01 06:55:46;;;;;;;;;;;;;;;20.62;50.92;100786.13;4958439;28;4284;-67
2022/06/01 06:58:12;;;;;;;;;;;;;;;20.62;50.90;100791.91;4962269;28;4354;-66
2022/06/01 07:00:39;;;;;;;;;;;;;;;20.62;50.86;100794.78;4962216;28;4109;-66
2022/06/01 07:03:05;;;;;;;;;;;;;;;20.61;50.74;100808.38;4963884;28;4262;-66
2022/06/01 07:08:16;;;;;;;;;;;;;;;20.62;50.86;100814.91;4964879;28;4129;-66
2022/06/01 07:10:43;;;;;;;;;;;;;;;20.62;50.75;100820.66;4963153;28;4195;-66
2022/06/01 07:13:09;;;;;;;;;;;;;;;20.62;50.86;100832.91;4963780;28;4132;-66
2022/06/01 07:15:36;;;;;;;;;;;;;;;20.63;50.90;100822.13;4965283;28;4187;-66
2022/06/01 07:18:03;;;;;;;;;;;;;;;20.62;50.73;100817.78;4959898;28;5415;-66
2022/06/01 07:20:29;;;;;;;;;;;;;;;20.60;50.74;100821.31;4963004;28;4194;-66
2022/06/01 07:22:56;;;;;;;;;;;;;;;20.61;50.82;100819.91;4963014;28;4196;-65
2022/06/01 07:25:23;;;;;;;;;;;;;;;20.62;50.82;100820.66;4965757;28;5287;-66
2022/06/01 07:27:49;;;;;;;;;;;;;;;20.62;50.79;100820.66;4964193;28;5238;-66
2022/06/01 07:30:16;;;;;;;;;;;;;;;20.63;50.84;100819.25;4964846;28;4248;-66
2022/06/01 07:32:45;;;;;;;;;;;;;;;20.62;50.86;100814.91;4964410;28;4248;-65
2022/06/01 07:35:12;;;;;;;;;;;;;;;20.62;50.82;100824.28;4964425;28;4300;-66
2022/06/01 07:43:08;;;;;;;;;;;;;;;20.62;50.83;100812.78;4965636;28;4100;-66
2022/06/01 07:45:35;;;;;;;;;;;;;;;20.62;50.80;100824.28;4967212;28;4134;-66
2022/06/01 07:48:02;;;;;;;;;;;;;;;20.62;50.64;100814.91;4968122;28;4182;-65
2022/06/01 07:50:50;;;;;;;;;;;;;;;20.62;50.63;100814.91;4967359;28;4363;-65
2022/06/01 07:53:16;;;;;;;;;;;;;;;20.61;50.64;100817.03;4967709;28;5516;-65
2022/06/01 07:55:42;;;;;;;;;;;;;;;20.61;50.71;100810.53;4972104;28;4297;-65
2022/06/01 07:58:09;;;;;;;;;;;;;;;20.62;50.60;100814.91;4967145;28;4221;-65
2022/06/01 08:00:35;;;;;;;;;;;;;;;20.61;50.75;100807.66;4968913;28;4202;-65
2022/06/01 08:03:02;;;;;;;;;;;;;;;20.62;50.65;100814.91;4967197;28;4051;-65
2022/06/01 08:05:30;;;;;;;;;;;;;;;20.62;50.74;100818.53;4965913;28;4258;-65
2022/06/01 08:07:56;;;;;;;;;;;;;;;20.63;50.73;100822.13;4965566;28;4155;-65
2022/06/01 08:10:23;;;;;;;;;;;;;;;20.62;50.60;100820.66;4969060;28;4292;-65
2022/06/01 08:13:07;;;;;;;;;;;;;;;20.61;50.65;100819.16;4967240;28;4320;-65
2022/06/01 08:15:34;;;;;;;;;;;;;;;20.61;50.72;100817.03;4966348;28;5105;-65
2022/06/01 08:18:01;;;;;;;;;;;;;;;20.62;50.77;100826.41;4964492;28;4257;-65
2022/06/01 08:20:27;;;;;;;;;;;;;;;20.62;50.83;100826.41;4965706;28;4230;-65
2022/06/01 08:22:53;;;;;;;;;;;;;;;20.61;50.71;100830.66;4967997;28;4235;-65
2022/06/01 08:25:20;;;;;;;;;;;;;;;20.62;50.82;100832.91;4966996;28;4225;-65
2022/06/01 08:27:46;;;;;;;;;;;;;;;20.63;50.68;100827.88;4968477;28;4156;-65
2022/06/01 08:30:13;;;;;;;;;;;;;;;20.62;50.71;100829.28;4966601;28;4287;-65
2022/06/01 08:32:40;;;;;;;;;;;;;;;20.62;50.84;100830.03;4967391;28;4189;-65
2022/06/01 08:35:06;;;;;;;;;;;;;;;20.62;50.71;100832.16;4967670;28;4195;-65
2022/06/01 08:37:33;;;;;;;;;;;;;;;20.61;50.74;100825.66;4967132;28;4410;-65
2022/06/01 08:39:59;;;;;;;;;;;;;;;20.63;50.75;100825.00;4968268;28;4664;-65
2022/06/01 08:42:25;;;;;;;;;;;;;;;20.62;50.82;100835.06;4966740;28;4217;-66
2022/06/01 08:44:52;;;;;;;;;;;;;;;20.63;50.79;100830.75;4966251;28;4221;-66
2022/06/01 08:47:28;;;;;;;;;;;;;;;20.62;50.65;100832.16;4967247;28;4074;-67
2022/06/01 08:49:56;;;;;;;;;;;;;;;20.63;50.68;100833.63;4964507;28;4301;-67
2022/06/01 08:52:22;;;;;;;;;;;;;;;20.62;50.70;100830.03;4960982;28;4265;-67
2022/06/01 08:54:48;;;;;;;;;;;;;;;20.62;50.76;100837.91;4959502;28;4862;-66
2022/06/01 08:57:16;;;;;;;;;;;;;;;20.62;50.65;100843.69;4967361;28;4166;-66
2022/06/01 08:59:51;;;;;;;;;;;;;;;20.62;50.80;100840.81;4964756;28;5368;-66
2022/06/01 09:02:36;;;;;;;;;;;;;;;20.61;50.75;100834.28;4959422;28;4068;-66
2022/06/01 09:05:05;;;;;;;;;;;;;;;20.62;50.69;100840.81;4965430;28;4212;-66
2022/06/01 09:07:33;;;;;;;;;;;;;;;20.62;50.70;100840.81;4964498;28;5346;-66
2022/06/01 09:10:08;;;;;;;;;;;;;;;20.62;50.70;100843.69;4963053;28;4208;-66
2022/06/01 09:12:34;;;;;;;;;;;;;;;20.62;50.69;100843.69;4943829;28;3978;-66
2022/06/01 09:15:08;;;;;;;;;;;;;;;20.61;50.63;100837.16;4965252;28;4082;-66
2022/06/01 09:17:34;;;;;;;;;;;;;;;20.62;50.77;100837.91;4970632;28;4192;-66
2022/06/01 09:22:49;;;;;;;;;;;;;;;20.62;50.74;100830.03;4964046;28;3980;-66
2022/06/01 09:25:17;;;;;;;;;;;;;;;20.62;50.69;100826.41;4967115;28;4234;-66
2022/06/01 09:27:44;;;;;;;;;;;;;;;20.61;50.69;100825.66;4965603;28;4199;-66
2022/06/01 09:30:22;;;;;;;;;;;;;;;20.62;50.72;100837.91;4967270;28;4283;-66
2022/06/01 09:32:59;;;;;;;;;;;;;;;20.62;50.68;100832.16;4965486;28;4609;-66
2022/06/01 09:35:29;;;;;;;;;;;;;;;20.62;50.76;100832.91;4966509;28;4212;-66
2022/06/01 09:37:56;;;;;;;;;;;;;;;20.63;50.74;100825.00;4965018;28;5480;-66
2022/06/01 09:40:24;;;;;;;;;;;;;;;20.63;50.70;100825.00;4966878;28;4219;-66
2022/06/01 09:42:51;;;;;;;;;;;;;;;20.61;50.76;100830.66;4964342;28;4193;-66
2022/06/01 09:45:24;;;;;;;;;;;;;;;20.62;50.71;100826.41;4965532;28;4221;-66
2022/06/01 09:47:51;;;;;;;;;;;;;;;20.63;50.67;100816.38;4964815;28;4183;-66
2022/06/01 09:50:25;;;;;;;;;;;;;;;20.62;50.73;100814.91;4962526;28;4095;-66
2022/06/01 09:52:54;;;;;;;;;;;;;;;20.62;50.62;100823.53;4960676;28;4229;-66
2022/06/01 09:55:21;;;;;;;;;;;;;;;20.61;50.83;100824.91;4966883;28;4267;-66
2022/06/01 09:58:01;;;;;;;;;;;;;;;20.62;50.71;100817.78;4964938;28;4978;-66
2022/06/01 10:06:12;;;;;;;;;;;;;;;20.63;50.79;100804.88;4964903;28;3982;-66
2022/06/01 10:08:42;;;;;;;;;;;;;;;20.62;50.73;100804.13;4966401;28;4081;-66
2022/06/01 10:11:21;;;;;;;;;;;;;;;20.63;50.62;100807.75;4964028;28;4174;-66
2022/06/01 10:13:48;;;;;;;;;;;;;;;20.63;50.77;100799.13;4966194;28;4195;-66
2022/06/01 10:16:26;;;;;;;;;;;;;;;20.63;50.84;100788.34;4964591;28;4222;-66
2022/06/01 10:18:53;;;;;;;;;;;;;;;20.63;50.81;100781.84;4964535;28;4475;-66
2022/06/01 10:21:20;;;;;;;;;;;;;;;20.63;50.82;100784.72;4962401;28;4198;-66
2022/06/01 10:23:57;;;;;;;;;;;;;;;20.62;50.73;100786.13;4961338;28;4880;-67
2022/06/01 10:26:25;;;;;;;;;;;;;;;20.64;50.90;100777.59;4978577;28;4212;-68
2022/06/01 10:28:52;;;;;;;;;;;;;;;20.65;50.73;100776.94;4956833;28;4228;-69
2022/06/01 10:31:18;;;;;;;;;;;;;;;20.66;50.72;100775.56;4962118;28;5488;-71
2022/06/01 10:33:49;;;;;;;;;;;;;;;20.67;51.08;100770.53;4965121;28;5414;-70
2022/06/01 10:36:28;;;;;;;;;;;;;;;20.68;50.95;100774.88;4965641;28;4056;-70
2022/06/01 10:38:56;;;;;;;;;;;;;;;20.68;50.91;100772.00;4958514;28;5351;-70
2022/06/01 10:41:27;;;;;;;;;;;;;;;20.66;51.24;100763.28;4965695;28;4191;-70
2022/06/01 10:43:56;;;;;;;;;;;;;;;20.68;51.12;100775.63;4963583;28;4159;-70
2022/06/01 10:46:22;;;;;;;;;;;;;;;20.68;51.07;100769.88;4958854;28;4293;-70
2022/06/01 10:48:52;;;;;;;;;;;;;;;20.68;51.11;100772.75;4965117;28;5678;-70
2022/06/01 10:51:19;;;;;;;;;;;;;;;20.68;50.98;100769.13;4964712;28;4215;-70
2022/06/01 10:53:59;;;;;;;;;;;;;;;20.70;50.91;100769.94;4963615;28;5369;-70
2022/06/01 10:56:26;;;;;;;;;;;;;;;20.69;50.75;100759.13;4964988;28;4864;-70
2022/06/01 10:58:52;;;;;;;;;;;;;;;20.70;50.71;100764.19;4962401;28;4276;-61
2022/06/01 11:01:32;;;;;;;;;;;;;;;20.68;50.35;100766.25;4965451;28;4237;-61
2022/06/01 11:04:08;;;;;;;;;;;;;;;20.66;49.12;100760.41;4961021;28;4122;-61
2022/06/01 11:06:57;;;;;;;;;;;;;;;20.63;47.32;100748.06;4963667;28;4242;-61
2022/06/01 11:09:30;;;;;;;;;;;;;;;20.62;45.84;100757.38;4957151;28;4515;-69
2022/06/01 11:11:56;;;;;;;;;;;;;;;20.62;44.79;100748.75;4963005;28;4184;-69
2022/06/01 11:14:40;;;;;;;;;;;;;;;20.62;45.01;100757.38;4966863;28;5496;-68
2022/06/01 11:17:09;;;;;;;;;;;;;;;20.64;45.72;100748.81;4966369;28;5285;-70
2022/06/01 11:19:42;;;;;;;;;;;;;;;20.65;46.24;100753.91;4966532;28;5174;-69
2022/06/01 11:22:12;;;;;;;;;;;;;;;20.66;46.51;100746.00;4968029;28;4279;-69
2022/06/01 11:24:38;;;;;;;;;;;;;;;20.66;46.95;100748.88;4967771;28;4183;-71
2022/06/01 11:27:22;;;;;;;;;;;;;;;20.66;46.77;100746.78;4968830;28;4177;-70
2022/06/01 11:30:02;;;;;;;;;;;;;;;20.66;46.93;100751.78;4961112;28;4383;-70
2022/06/01 11:32:31;;;;;;;;;;;;;;;20.67;46.94;100742.50;4966928;28;4238;-73
2022/06/01 11:35:09;;;;;;;;;;;;;;;20.67;47.23;100742.50;4969163;28;4174;-73
2022/06/01 11:37:56;;;;;;;;;;;;;;;20.68;47.44;100746.09;4961984;28;4192;-71
2022/06/01 11:40:40;;;;;;;;;;;;;;;20.67;47.61;100753.28;4968821;28;4330;-71
2022/06/01 11:43:18;;;;;;;;;;;;;;;20.68;48.04;100761.25;4959416;28;4965;-70
2022/06/01 11:45:47;;;;;;;;;;;;;;;20.67;48.06;100747.50;4965627;28;5497;-73
2022/06/01 11:48:13;;;;;;;;;;;;;;;20.67;48.46;100747.50;4961018;28;4068;-70
2022/06/01 11:50:54;;;;;;;;;;;;;;;20.69;48.81;100750.47;4962855;28;5269;-71
2022/06/01 11:53:21;;;;;;;;;;;;;;;20.69;49.12;100751.22;4967629;28;4175;-71
2022/06/01 11:55:48;;;;;;;;;;;;;;;20.70;49.64;100737.56;4965602;28;4216;-72
2022/06/01 11:58:35;;;;;;;;;;;;;;;20.72;50.13;100743.41;4968138;28;4217;-72
2022/06/01 12:01:09;;;;;;;;;;;;;;;20.72;50.54;100731.91;4966180;28;5462;-74
2022/06/01 12:03:36;;;;;;;;;;;;;;;20.73;50.99;100733.41;4968446;28;4237;-72
2022/06/01 12:06:35;;;;;;;;;;;;;;;20.74;51.34;100729.13;4967646;28;4181;-71
2022/06/01 12:09:02;;;;;;;;;;;;;;;20.73;51.48;100739.16;4960665;28;5302;-75
2022/06/01 12:11:40;;;;;;;;;;;;;;;20.74;51.58;100734.88;4967379;28;4183;-72
2022/06/01 12:14:18;;;;;;;;;;;;;;;20.76;52.13;100737.84;4964114;28;5286;-73
2022/06/01 12:16:45;;;;;;;;;;;;;;;20.76;51.99;100722.72;4965232;28;5407;-74
2022/06/01 12:19:18;;;;;;;;;;;;;;;20.76;52.04;100732.06;4967147;28;4194;-73
2022/06/01 12:21:44;;;;;;;;;;;;;;;20.76;50.91;100737.84;4968172;28;4251;-74
2022/06/01 12:29:59;;;;;;;;;;;;;;;20.75;49.62;100750.72;4967142;28;4398;-75
2022/06/01 12:32:26;;;;;;;;;;;;;;;20.75;49.33;100776.63;4967171;28;4227;-75
2022/06/01 12:35:03;;;;;;;;;;;;;;;20.74;49.54;100783.78;4966172;28;4115;-73
2022/06/01 12:37:35;;;;;;;;;;;;;;;20.74;49.52;100786.66;4968021;28;4111;-73
2022/06/01 12:40:03;;;;;;;;;;;;;;;20.74;49.77;100795.28;4966599;28;4206;-73
2022/06/01 12:42:37;;;;;;;;;;;;;;;20.74;49.92;100792.41;4963391;28;4224;-73
2022/06/01 12:45:05;;;;;;;;;;;;;;;20.75;49.80;100805.41;4961383;28;4274;-70
2022/06/01 12:47:41;;;;;;;;;;;;;;;20.75;50.13;100799.63;4968230;28;4447;-70
2022/06/01 12:50:11;;;;;;;;;;;;;;;20.74;50.12;100803.94;4964062;28;4217;-71
2022/06/01 12:52:37;;;;;;;;;;;;;;;20.75;50.16;100811.16;4976714;28;4099;-73
2022/06/01 12:55:08;;;;;;;;;;;;;;;20.76;50.26;100803.28;4965178;28;4559;-71
2022/06/01 12:57:37;;;;;;;;;;;;;;;20.77;50.32;100796.84;4963244;28;4193;-71
2022/06/01 13:00:05;;;;;;;;;;;;;;;20.77;50.39;100791.09;4967400;28;4201;-70
2022/06/01 13:02:35;;;;;;;;;;;;;;;20.78;50.36;100786.84;4967757;28;4226;-70
2022/06/01 13:05:03;;;;;;;;;;;;;;;20.78;50.42;100781.09;4967430;28;5293;-69
2022/06/01 13:07:35;;;;;;;;;;;;;;;20.79;50.39;100782.56;4966970;28;4191;-70
2022/06/01 13:10:08;;;;;;;;;;;;;;;20.80;50.35;100786.94;4967622;28;5227;-70
2022/06/01 13:12:34;;;;;;;;;;;;;;;20.80;50.46;100777.53;4966797;28;5286;-70
2022/06/01 13:15:17;;;;;;;;;;;;;;;20.81;50.54;100785.53;4966468;28;4221;-70
2022/06/01 13:17:44;;;;;;;;;;;;;;;20.80;50.61;100792.69;4963082;28;4491;-71
2022/06/01 13:20:10;;;;;;;;;;;;;;;20.80;50.50;100794.81;4966420;28;4122;-72
2022/06/01 13:22:37;;;;;;;;;;;;;;;20.80;50.54;100795.56;4967234;28;4191;-69
2022/06/01 13:25:08;;;;;;;;;;;;;;;20.79;50.81;100788.31;4955660;28;4135;-69
2022/06/01 13:27:34;;;;;;;;;;;;;;;20.80;51.05;100781.19;4957559;28;4102;-70